createdAt,value
2022-10-06T00:00:26.022Z,91.54
2022-10-06T00:02:52.485Z,92.11
2022-10-06T00:05:18.911Z,92.21
2022-10-06T00:07:45.368Z,91.96
2022-10-06T00:10:11.754Z,92.01
2022-10-06T00:12:42.926Z,92.49
2022-10-06T00:15:11.984Z,92.73
2022-10-06T00:17:39.074Z,93.16
2022-10-06T00:20:06.422Z,93.43
2022-10-06T00:22:34.988Z,93.59
2022-10-06T00:25:01.527Z,93.74
2022-10-06T00:27:34.087Z,93.61
2022-10-06T00:30:00.478Z,94.58
2022-10-06T00:32:26.864Z,93.53
2022-10-06T00:34:54.019Z,94.33
2022-10-06T00:37:20.410Z,95.06
2022-10-06T00:39:47.070Z,94.45
2022-10-06T00:42:31.483Z,95.61
2022-10-06T00:45:02.460Z,94.93
2022-10-06T00:47:30.967Z,95.75
2022-10-06T00:49:59.499Z,94.87
2022-10-06T00:52:30.834Z,95.19
2022-10-06T00:55:00.228Z,94.76
2022-10-06T00:57:27.654Z,94.96
2022-10-06T00:59:54.236Z,95.04
2022-10-06T01:02:31.943Z,95.26
2022-10-06T01:05:03.400Z,95.08
2022-10-06T01:07:30.033Z,95.44
2022-10-06T01:10:00.722Z,94.34
2022-10-06T01:12:29.758Z,95.15
2022-10-06T01:14:57.291Z,94.42
2022-10-06T01:17:30.047Z,95.13
2022-10-06T01:20:00.811Z,94.75
2022-10-06T01:22:36.707Z,95.08
2022-10-06T01:25:06.079Z,94.95
2022-10-06T01:27:33.822Z,95.06
2022-10-06T01:30:01.479Z,95.35
2022-10-06T01:32:34.135Z,95.24
2022-10-06T01:35:00.557Z,94.83
2022-10-06T01:37:28.352Z,95.82
2022-10-06T01:39:54.765Z,95.67
2022-10-06T01:42:23.359Z,94.68
2022-10-06T01:44:49.761Z,94.66
2022-10-06T01:47:16.195Z,94.91
2022-10-06T01:49:42.599Z,95.25
2022-10-06T01:52:09.306Z,95.30
2022-10-06T01:54:35.695Z,95.73
2022-10-06T01:57:02.101Z,95.89
2022-10-06T01:59:28.519Z,96.41
2022-10-06T02:01:55.025Z,96.10
2022-10-06T02:04:22.074Z,96.56
2022-10-06T02:06:48.536Z,96.54
2022-10-06T02:09:14.998Z,96.07
2022-10-06T02:11:42.703Z,96.34
2022-10-06T02:14:09.140Z,96.71
2022-10-06T02:16:36.072Z,97.13
2022-10-06T02:19:02.482Z,96.89
2022-10-06T02:21:28.917Z,97.08
2022-10-06T02:23:55.298Z,97.22
2022-10-06T02:26:21.758Z,97.99
2022-10-06T02:28:50.075Z,98.21
2022-10-06T02:31:20.219Z,97.28
2022-10-06T02:33:46.660Z,97.65
2022-10-06T02:36:16.637Z,96.91
2022-10-06T02:38:43.753Z,97.08
2022-10-06T02:41:11.104Z,97.77
2022-10-06T02:43:38.501Z,97.82
2022-10-06T02:46:09.109Z,97.99
2022-10-06T02:48:35.798Z,98.54
2022-10-06T02:51:09.481Z,99.04
2022-10-06T02:53:37.150Z,98.17
2022-10-06T02:56:10.786Z,98.69
2022-10-06T02:58:39.825Z,98.48
2022-10-06T03:01:18.158Z,98.15
2022-10-06T03:03:46.689Z,98.43
2022-10-06T03:06:24.738Z,98.90
2022-10-06T03:09:13.754Z,98.42
2022-10-06T03:11:43.221Z,99.08
2022-10-06T03:14:16.600Z,99.24
2022-10-06T03:16:45.685Z,99.40
2022-10-06T03:19:20.943Z,99.02
2022-10-06T03:21:47.435Z,98.28
2022-10-06T03:24:14.279Z,98.23
2022-10-06T03:26:46.201Z,97.94
2022-10-06T03:29:13.829Z,99.67
2022-10-06T03:31:43.666Z,100.00
2022-10-06T03:34:13.440Z,100.00
2022-10-06T03:36:39.843Z,100.00
2022-10-06T03:39:06.783Z,100.00
2022-10-06T03:41:36.054Z,100.00
2022-10-06T03:44:03.865Z,100.00
2022-10-06T03:46:34.492Z,100.00
2022-10-06T03:49:03.130Z,100.00
2022-10-06T03:51:39.068Z,100.00
2022-10-06T03:54:10.734Z,100.00
2022-10-06T03:56:40.985Z,100.00
2022-10-06T03:59:12.300Z,100.00
2022-10-06T04:01:42.596Z,100.00
2022-10-06T04:04:11.573Z,100.00
2022-10-06T04:06:41.834Z,100.00
2022-10-06T04:09:15.625Z,100.00
2022-10-06T04:11:44.398Z,100.00
2022-10-06T04:14:14.717Z,100.00
2022-10-06T04:16:44.301Z,100.00
2022-10-06T04:19:12.722Z,100.00
2022-10-06T04:21:44.832Z,100.00
2022-10-06T04:24:15.741Z,100.00
2022-10-06T04:26:45.417Z,100.00
2022-10-06T04:29:13.158Z,99.45
2022-10-06T04:31:41.031Z,99.53
2022-10-06T04:34:12.998Z,99.82
2022-10-06T04:36:42.539Z,99.82
2022-10-06T04:39:13.542Z,99.86
2022-10-06T04:41:47.225Z,99.81
2022-10-06T04:44:19.023Z,99.15
2022-10-06T04:46:46.007Z,97.13
2022-10-06T04:49:19.444Z,97.23
2022-10-06T04:51:50.244Z,97.27
2022-10-06T04:54:17.528Z,96.64
2022-10-06T04:56:44.931Z,97.65
2022-10-06T04:59:11.461Z,96.98
2022-10-06T05:01:40.778Z,95.71
2022-10-06T05:04:10.447Z,95.34
2022-10-06T05:06:41.929Z,94.54
2022-10-06T05:09:11.373Z,91.70
2022-10-06T05:11:40.484Z,90.62
2022-10-06T05:14:09.274Z,87.69
2022-10-06T05:16:39.051Z,86.06
2022-10-06T05:19:06.515Z,87.03
2022-10-06T05:21:33.334Z,87.40
2022-10-06T05:24:00.969Z,87.47
2022-10-06T05:26:31.055Z,87.59
2022-10-06T05:28:58.730Z,87.25
2022-10-06T05:31:28.057Z,84.82
2022-10-06T05:33:56.330Z,84.83
2022-10-06T05:36:25.460Z,85.14
2022-10-06T05:38:53.646Z,85.18
2022-10-06T05:41:28.939Z,85.13
2022-10-06T05:43:58.302Z,85.26
2022-10-06T05:46:29.997Z,85.62
2022-10-06T05:49:00.239Z,85.75
2022-10-06T05:51:31.870Z,85.75
2022-10-06T05:54:00.832Z,86.67
2022-10-06T05:56:29.683Z,87.01
2022-10-06T05:58:57.910Z,87.96
2022-10-06T06:01:28.383Z,87.20
2022-10-06T06:03:56.335Z,88.08
2022-10-06T06:06:28.274Z,87.59
2022-10-06T06:09:00.798Z,86.66
2022-10-06T06:11:31.395Z,86.16
2022-10-06T06:13:59.571Z,86.67
2022-10-06T06:16:28.603Z,86.02
2022-10-06T06:18:55.075Z,85.96
2022-10-06T06:21:21.709Z,85.35
2022-10-06T06:23:50.065Z,84.83
2022-10-06T06:26:18.710Z,84.47
2022-10-06T06:28:48.666Z,84.56
2022-10-06T06:31:23.695Z,84.03
2022-10-06T06:33:52.223Z,84.13
2022-10-06T06:36:31.895Z,83.97
2022-10-06T06:38:58.687Z,85.22
2022-10-06T06:41:31.545Z,85.47
2022-10-06T06:44:08.271Z,86.85
2022-10-06T06:46:37.784Z,87.25
2022-10-06T06:49:11.998Z,88.90
2022-10-06T06:51:44.630Z,89.33
2022-10-06T06:54:12.868Z,88.43
2022-10-06T06:56:42.547Z,88.40
2022-10-06T06:59:11.697Z,89.19
2022-10-06T07:01:47.306Z,88.89
2022-10-06T07:04:16.842Z,89.69
2022-10-06T07:06:53.320Z,88.90
2022-10-06T07:09:20.812Z,89.26
2022-10-06T07:11:47.643Z,88.42
2022-10-06T07:14:18.485Z,88.30
2022-10-06T07:17:06.028Z,88.52
2022-10-06T07:19:50.784Z,88.29
2022-10-06T07:22:39.767Z,89.11
2022-10-06T07:25:25.699Z,87.79
2022-10-06T07:27:56.343Z,86.60
2022-10-06T07:30:29.003Z,86.62
2022-10-06T07:33:00.426Z,86.11
2022-10-06T07:35:27.496Z,86.88
2022-10-06T07:37:53.942Z,87.58
2022-10-06T07:40:22.597Z,85.61
2022-10-06T07:42:51.891Z,86.46
2022-10-06T07:45:45.146Z,83.35
2022-10-06T07:48:19.175Z,83.25
2022-10-06T07:50:52.387Z,83.31
2022-10-06T07:53:28.009Z,82.61
2022-10-06T07:56:08.338Z,81.34
2022-10-06T07:58:39.527Z,80.29
2022-10-06T08:01:08.527Z,79.35
2022-10-06T08:03:37.742Z,78.46
2022-10-06T08:06:04.327Z,78.26
2022-10-06T08:08:32.755Z,78.40
2022-10-06T08:11:01.521Z,78.04
2022-10-06T08:13:28.423Z,76.96
2022-10-06T08:15:56.431Z,75.09
2022-10-06T08:18:45.424Z,73.02
2022-10-06T08:21:16.775Z,72.59
2022-10-06T08:23:44.794Z,71.81
2022-10-06T08:26:12.997Z,72.56
2022-10-06T08:28:43.214Z,72.49
2022-10-06T08:31:34.968Z,71.63
2022-10-06T08:34:01.542Z,72.04
2022-10-06T08:36:31.832Z,71.32
2022-10-06T08:38:58.967Z,70.66
2022-10-06T08:41:32.413Z,70.98
2022-10-06T08:44:07.343Z,70.33
2022-10-06T08:46:49.377Z,70.42
2022-10-06T08:49:20.084Z,70.34
2022-10-06T08:52:06.994Z,70.15
2022-10-06T08:54:43.635Z,69.67
2022-10-06T08:57:20.339Z,69.46
2022-10-06T08:59:49.223Z,68.83
2022-10-06T09:02:39.259Z,67.21
2022-10-06T09:05:06.815Z,67.28
2022-10-06T09:07:45.942Z,66.71
2022-10-06T09:10:33.713Z,67.45
2022-10-06T09:13:06.708Z,66.52
2022-10-06T09:15:40.370Z,66.04
2022-10-06T09:18:17.995Z,67.16
2022-10-06T09:20:53.315Z,67.93
2022-10-06T09:23:39.729Z,68.60
2022-10-06T09:26:11.479Z,69.16
2022-10-06T09:28:37.943Z,69.09
2022-10-06T09:31:18.331Z,69.54
2022-10-06T09:33:45.446Z,68.45
2022-10-06T09:36:15.761Z,69.12
2022-10-06T09:38:56.467Z,69.48
2022-10-06T09:41:28.193Z,68.72
2022-10-06T09:44:04.670Z,68.73
2022-10-06T09:46:41.612Z,67.69
2022-10-06T09:49:20.121Z,67.44
2022-10-06T09:51:59.872Z,65.13
2022-10-06T09:54:28.658Z,65.81
2022-10-06T09:56:57.702Z,66.31
2022-10-06T09:59:42.291Z,64.96
2022-10-06T10:02:31.446Z,64.64
2022-10-06T10:04:58.282Z,64.52
2022-10-06T10:07:30.111Z,63.86
2022-10-06T10:10:24.734Z,61.93
2022-10-06T10:12:56.350Z,62.09
2022-10-06T10:15:22.665Z,61.34
2022-10-06T10:17:50.331Z,61.55
2022-10-06T10:20:23.663Z,61.44
2022-10-06T10:22:52.295Z,60.61
2022-10-06T10:25:38.698Z,60.44
2022-10-06T10:28:10.926Z,59.57
2022-10-06T10:30:49.935Z,58.32
2022-10-06T10:33:30.080Z,58.70
2022-10-06T10:35:58.764Z,58.30
2022-10-06T10:38:26.904Z,58.91
2022-10-06T10:41:02.616Z,58.42
2022-10-06T10:43:33.914Z,58.78
2022-10-06T10:46:16.803Z,58.25
2022-10-06T10:48:59.166Z,59.17
2022-10-06T10:51:31.413Z,58.34
2022-10-06T10:54:30.612Z,59.01
2022-10-06T10:56:58.287Z,58.64
2022-10-06T10:59:34.093Z,59.29
2022-10-06T11:02:15.579Z,56.96
2022-10-06T11:04:47.125Z,56.88
2022-10-06T11:07:30.614Z,56.70
2022-10-06T11:10:03.023Z,55.19
2022-10-06T11:13:04.653Z,56.23
2022-10-06T11:15:58.703Z,56.73
2022-10-06T11:18:51.858Z,57.91
2022-10-06T11:21:23.979Z,56.18
2022-10-06T11:24:14.644Z,55.86
2022-10-06T11:27:02.458Z,54.06
2022-10-06T11:29:40.525Z,54.11
2022-10-06T11:32:35.499Z,54.37
2022-10-06T11:35:03.072Z,53.23
2022-10-06T11:37:42.379Z,51.82
2022-10-06T11:40:52.134Z,51.81
2022-10-06T11:43:35.882Z,51.75
2022-10-06T11:46:20.144Z,52.35
2022-10-06T11:48:46.772Z,51.82
2022-10-06T11:51:28.360Z,50.67
2022-10-06T11:53:59.263Z,50.82
2022-10-06T11:56:35.912Z,50.25
2022-10-06T11:59:13.166Z,51.67
2022-10-06T12:01:47.623Z,51.92
2022-10-06T12:04:18.511Z,51.89
2022-10-06T12:06:53.906Z,51.38
2022-10-06T12:09:26.209Z,52.11
2022-10-06T12:12:14.967Z,51.74
2022-10-06T12:18:29.642Z,50.14
2022-10-06T12:21:08.149Z,50.78
2022-10-06T12:23:45.451Z,49.84
2022-10-06T12:26:44.163Z,49.95
2022-10-06T12:29:32.052Z,49.47
2022-10-06T12:32:12.996Z,50.07
2022-10-06T12:34:39.288Z,50.35
2022-10-06T12:37:40.341Z,50.77
2022-10-06T12:40:25.352Z,51.51
2022-10-06T12:42:54.205Z,52.61
2022-10-06T12:45:22.418Z,52.55
2022-10-06T12:47:48.992Z,52.23
2022-10-06T12:50:22.761Z,52.13
2022-10-06T12:53:08.671Z,52.38
2022-10-06T12:55:45.874Z,50.99
2022-10-06T12:58:20.446Z,51.28
2022-10-06T13:00:47.691Z,51.07
2022-10-06T13:03:24.304Z,49.08
2022-10-06T13:05:53.655Z,49.15
2022-10-06T13:08:28.871Z,49.11
2022-10-06T13:11:21.498Z,48.77
2022-10-06T13:13:53.189Z,48.03
2022-10-06T13:16:22.952Z,48.08
2022-10-06T13:18:54.768Z,47.79
2022-10-06T13:21:21.249Z,48.11
2022-10-06T13:23:48.621Z,47.88
2022-10-06T13:26:30.210Z,47.30
2022-10-06T13:28:58.720Z,47.11
2022-10-06T13:31:31.286Z,47.98
2022-10-06T13:34:15.897Z,47.22
2022-10-06T13:36:45.260Z,47.68
2022-10-06T13:39:14.536Z,48.26
2022-10-06T13:41:53.924Z,47.41
2022-10-06T13:44:37.978Z,47.66
2022-10-06T13:47:14.426Z,47.38
2022-10-06T13:50:03.815Z,47.73
2022-10-06T13:52:40.737Z,47.72
2022-10-06T13:55:18.513Z,47.80
2022-10-06T13:57:47.526Z,48.31
2022-10-06T14:00:23.623Z,47.77
2022-10-06T14:03:10.862Z,47.66
2022-10-06T14:05:44.452Z,47.36
2022-10-06T14:08:10.827Z,47.80
2022-10-06T14:10:47.505Z,47.46
2022-10-06T14:13:26.412Z,46.80
2022-10-06T14:15:57.288Z,47.30
2022-10-06T14:18:33.020Z,48.08
2022-10-06T14:21:15.630Z,47.79
2022-10-06T14:23:48.096Z,47.10
2022-10-06T14:26:16.239Z,46.98
2022-10-06T14:28:52.649Z,47.77
2022-10-06T14:31:23.946Z,47.11
2022-10-06T14:33:52.658Z,46.97
2022-10-06T14:36:34.459Z,46.85
2022-10-06T14:39:01.688Z,46.68
2022-10-06T14:41:29.664Z,47.11
2022-10-06T14:44:08.576Z,46.79
2022-10-06T14:46:36.204Z,47.42
2022-10-06T14:49:07.576Z,47.04
2022-10-06T14:51:37.027Z,47.93
2022-10-06T14:54:04.934Z,47.67
2022-10-06T14:56:33.494Z,47.82
2022-10-06T14:59:04.544Z,47.66
2022-10-06T15:01:33.249Z,47.65
2022-10-06T15:04:05.767Z,47.61
2022-10-06T15:06:50.962Z,47.79
2022-10-06T15:09:17.358Z,48.09
2022-10-06T15:11:43.748Z,48.52
2022-10-06T15:14:10.451Z,49.01
2022-10-06T15:16:40.548Z,49.09
2022-10-06T15:19:07.132Z,48.96
2022-10-06T15:21:33.593Z,49.82
2022-10-06T15:24:02.697Z,49.85
2022-10-06T15:26:49.046Z,49.30
2022-10-06T15:29:16.242Z,50.72
2022-10-06T15:31:44.825Z,50.24
2022-10-06T15:34:13.455Z,50.82
2022-10-06T15:36:41.711Z,51.27
2022-10-06T15:39:10.370Z,51.36
2022-10-06T15:41:38.359Z,51.20
2022-10-06T15:44:06.399Z,51.06
2022-10-06T15:46:35.881Z,51.58
2022-10-06T15:49:04.992Z,52.12
2022-10-06T15:51:38.341Z,51.80
2022-10-06T15:54:05.346Z,51.99
2022-10-06T15:56:32.010Z,52.53
2022-10-06T15:58:59.370Z,52.76
2022-10-06T16:01:34.597Z,51.94
2022-10-06T16:04:08.996Z,52.70
2022-10-06T16:06:44.082Z,53.09
2022-10-06T16:09:12.049Z,52.64
2022-10-06T16:11:39.450Z,53.50
2022-10-06T16:14:07.787Z,53.76
2022-10-06T16:16:35.247Z,55.47
2022-10-06T16:19:03.518Z,56.41
2022-10-06T16:21:31.091Z,55.60
2022-10-06T16:23:58.296Z,56.75
2022-10-06T16:26:25.663Z,58.52
2022-10-06T16:28:52.932Z,57.99
2022-10-06T16:31:20.877Z,57.38
2022-10-06T16:33:48.102Z,59.12
2022-10-06T16:36:16.071Z,60.73
2022-10-06T16:38:42.599Z,61.48
2022-10-06T16:41:09.370Z,62.30
2022-10-06T16:43:38.814Z,62.45
2022-10-06T16:46:07.535Z,63.55
2022-10-06T16:48:36.328Z,63.68
2022-10-06T16:51:26.757Z,64.50
2022-10-06T16:53:57.412Z,65.07
2022-10-06T16:56:27.235Z,65.42
2022-10-06T16:58:56.303Z,65.94
2022-10-06T17:01:25.331Z,66.85
2022-10-06T17:04:12.008Z,66.68
2022-10-06T17:07:01.554Z,67.40
2022-10-06T17:09:29.091Z,67.45
2022-10-06T17:11:59.255Z,68.27
2022-10-06T17:14:27.556Z,68.45
2022-10-06T17:16:55.877Z,68.61
2022-10-06T17:19:24.399Z,68.78
2022-10-06T17:21:57.340Z,69.51
2022-10-06T17:24:28.427Z,69.89
2022-10-06T17:26:56.121Z,70.07
2022-10-06T17:29:24.215Z,70.37
2022-10-06T17:31:58.561Z,70.63
2022-10-06T17:34:31.362Z,71.44
2022-10-06T17:36:59.265Z,71.67
2022-10-06T17:39:25.647Z,72.08
2022-10-06T17:41:53.528Z,71.93
2022-10-06T17:44:23.235Z,72.06
2022-10-06T17:46:52.832Z,71.50
2022-10-06T17:49:21.201Z,71.34
2022-10-06T17:51:49.066Z,71.85
2022-10-06T17:54:19.146Z,72.02
2022-10-06T17:56:50.644Z,72.25
2022-10-06T17:59:20.000Z,71.49
2022-10-06T18:01:46.601Z,71.60
2022-10-06T18:04:17.373Z,71.75
2022-10-06T18:06:45.063Z,72.30
2022-10-06T18:09:12.401Z,73.13
2022-10-06T18:11:41.688Z,73.38
2022-10-06T18:14:13.685Z,73.42
2022-10-06T18:16:43.891Z,73.31
2022-10-06T18:19:13.801Z,73.14
2022-10-06T18:21:41.750Z,73.49
2022-10-06T18:24:16.478Z,74.25
2022-10-06T18:26:44.006Z,73.36
2022-10-06T18:29:11.550Z,74.06
2022-10-06T18:31:38.722Z,74.13
2022-10-06T18:36:52.714Z,73.41
2022-10-06T18:39:19.117Z,74.53
2022-10-06T18:41:47.526Z,74.25
2022-10-06T18:44:13.955Z,74.49
2022-10-06T18:46:58.795Z,73.84
2022-10-06T18:49:25.260Z,73.74
2022-10-06T18:51:58.118Z,73.78
2022-10-06T18:54:31.540Z,74.50
2022-10-06T18:56:58.173Z,74.88
2022-10-06T18:59:26.878Z,75.79
2022-10-06T19:01:55.951Z,75.67
2022-10-06T19:04:23.834Z,74.84
2022-10-06T19:06:52.963Z,74.59
2022-10-06T19:09:22.436Z,74.61
2022-10-06T19:11:51.187Z,74.18
2022-10-06T19:14:25.649Z,75.21
2022-10-06T19:16:58.973Z,75.32
2022-10-06T19:19:27.489Z,74.68
2022-10-06T19:21:59.443Z,75.26
2022-10-06T19:24:29.377Z,77.06
2022-10-06T19:26:56.503Z,77.19
2022-10-06T19:29:26.729Z,76.87
2022-10-06T19:31:59.371Z,76.17
2022-10-06T19:34:26.445Z,75.61
2022-10-06T19:36:52.975Z,75.98
2022-10-06T19:39:32.964Z,76.25
2022-10-06T19:42:18.147Z,76.79
2022-10-06T19:44:44.613Z,77.39
2022-10-06T19:47:14.562Z,77.06
2022-10-06T19:49:42.149Z,75.52
2022-10-06T19:52:11.408Z,77.23
2022-10-06T19:54:39.446Z,77.16
2022-10-06T19:57:06.534Z,77.68
2022-10-06T19:59:33.006Z,78.58
2022-10-06T20:01:59.493Z,78.25
2022-10-06T20:04:26.053Z,77.78
2022-10-06T20:06:52.609Z,78.52
2022-10-06T20:09:21.486Z,78.01
2022-10-06T20:11:50.223Z,78.05
2022-10-06T20:14:21.094Z,77.16
2022-10-06T20:16:49.148Z,78.19
2022-10-06T20:19:16.326Z,78.90
2022-10-06T20:21:42.883Z,78.08
2022-10-06T20:24:16.007Z,77.98
2022-10-06T20:26:43.205Z,78.20
2022-10-06T20:29:11.863Z,77.97
2022-10-06T20:31:44.247Z,78.51
2022-10-06T20:34:17.139Z,78.37
2022-10-06T20:36:44.024Z,78.85
2022-10-06T20:39:35.101Z,78.99
2022-10-06T20:42:01.895Z,79.17
2022-10-06T20:44:28.790Z,78.64
2022-10-06T20:46:55.232Z,78.80
2022-10-06T20:49:21.859Z,78.85
2022-10-06T20:51:52.327Z,78.72
2022-10-06T20:54:23.986Z,78.76
2022-10-06T20:56:53.427Z,78.55
2022-10-06T20:59:21.350Z,77.97
2022-10-06T21:01:51.001Z,77.86
2022-10-06T21:04:18.878Z,77.55
2022-10-06T21:06:45.502Z,77.77
2022-10-06T21:09:15.090Z,79.59
2022-10-06T21:11:41.609Z,79.50
2022-10-06T21:14:11.272Z,79.40
2022-10-06T21:16:42.002Z,80.19
2022-10-06T21:19:13.582Z,78.13
2022-10-06T21:21:41.527Z,78.68
2022-10-06T21:24:08.969Z,80.14
2022-10-06T21:26:35.659Z,79.32
2022-10-06T21:29:02.369Z,78.92
2022-10-06T21:31:29.109Z,79.72
2022-10-06T21:33:55.793Z,80.13
2022-10-06T21:36:24.470Z,81.11
2022-10-06T21:38:56.193Z,80.33
2022-10-06T21:41:32.282Z,81.09
2022-10-06T21:44:10.886Z,80.86
2022-10-06T21:46:51.505Z,80.07
2022-10-06T21:49:25.433Z,79.86
2022-10-06T21:51:54.140Z,79.63
2022-10-06T21:54:22.160Z,80.26
2022-10-06T21:56:49.241Z,80.36
2022-10-06T21:59:15.767Z,80.36
2022-10-06T22:01:44.477Z,80.81
2022-10-06T22:04:12.975Z,80.41
2022-10-06T22:06:40.151Z,80.49
2022-10-06T22:09:09.129Z,81.20
2022-10-06T22:11:37.782Z,81.11
2022-10-06T22:14:06.875Z,80.75
2022-10-06T22:16:35.135Z,81.23
2022-10-06T22:19:04.195Z,81.24
2022-10-06T22:21:33.406Z,81.06
2022-10-06T22:24:11.767Z,80.39
2022-10-06T22:26:40.145Z,81.16
2022-10-06T22:29:08.849Z,81.28
2022-10-06T22:31:38.429Z,82.06
2022-10-06T22:34:05.363Z,81.18
2022-10-06T22:36:33.695Z,80.85
2022-10-06T22:39:01.115Z,81.43
2022-10-06T22:41:28.194Z,81.34
2022-10-06T22:43:59.463Z,81.79
2022-10-06T22:46:28.111Z,80.68
2022-10-06T22:48:54.873Z,80.78
2022-10-06T22:51:21.523Z,80.36
2022-10-06T22:53:56.544Z,82.01
2022-10-06T22:56:24.988Z,82.14
2022-10-06T22:58:51.501Z,82.65
2022-10-06T23:01:19.616Z,83.30
2022-10-06T23:03:47.284Z,83.13
2022-10-06T23:06:16.155Z,83.12
2022-10-06T23:08:42.956Z,82.01
2022-10-06T23:11:13.091Z,83.01
2022-10-06T23:13:40.495Z,82.79
2022-10-06T23:16:08.891Z,82.52
2022-10-06T23:18:38.034Z,81.84
2022-10-06T23:21:05.703Z,81.53
2022-10-06T23:23:32.819Z,82.71
2022-10-06T23:26:25.902Z,81.95
2022-10-06T23:28:58.850Z,81.97
2022-10-06T23:31:26.166Z,81.38
2022-10-06T23:33:53.662Z,82.46
2022-10-06T23:36:20.784Z,82.17
2022-10-06T23:38:47.629Z,81.80
2022-10-06T23:41:14.558Z,82.43
2022-10-06T23:43:41.517Z,81.32
2022-10-06T23:46:08.195Z,81.77
2022-10-06T23:48:34.730Z,82.88
2022-10-06T23:51:09.856Z,82.33
2022-10-06T23:53:36.634Z,81.32
2022-10-06T23:56:04.328Z,82.10
2022-10-06T23:58:31.127Z,82.83
